Time;durP1;ratioP1;P1;durP2;ratioP2;P2;SDS_P1;SDS_P2;PMS_P1;PMS_P2;Temp;Humidity;BMP_temperature;BMP_pressure;BME280_temperature;BME280_humidity;BME280_pressure;Samples;Min_cycle;Max_cycle;Signal;HPM_P1;HPM_P2
2022/08/27 00:00:12;;;;;;;4.03;1.33;;;18.20;99.90;;;;;;3059750;19;20002;-72
2022/08/27 00:01:15;;;;;;;5.32;1.30;;;18.30;99.90;;;;;;3059469;19;20010;-73
2022/08/27 00:02:20;;;;;;;4.25;1.17;;;18.30;99.90;;;;;;3059326;19;20032;-73
2022/08/27 00:03:21;;;;;;;5.18;1.40;;;18.40;99.90;;;;;;3059686;19;20007;-73
2022/08/27 00:04:25;;;;;;;5.00;1.73;;;18.30;99.90;;;;;;3059284;19;20071;-73
2022/08/27 00:05:26;;;;;;;4.97;1.45;;;18.30;99.90;;;;;;3059252;19;20014;-73
2022/08/27 00:06:30;;;;;;;4.30;1.30;;;18.20;99.90;;;;;;3059259;19;20002;-72
2022/08/27 00:07:34;;;;;;;4.65;1.30;;;18.20;99.90;;;;;;3059382;19;20515;-73
2022/08/27 00:08:38;;;;;;;5.90;1.42;;;18.10;99.90;;;;;;3059355;19;20037;-73
2022/08/27 00:09:39;;;;;;;6.45;1.27;;;16.80;99.90;;;;;;3059035;19;20013;-73
2022/08/27 00:10:43;;;;;;;7.82;1.25;;;18.50;99.90;;;;;;3058804;19;20371;-73
2022/08/27 00:11:45;;;;;;;4.07;1.15;;;18.40;99.90;;;;;;3059556;19;20002;-73
2022/08/27 00:12:49;;;;;;;5.10;1.33;;;18.30;99.90;;;;;;3059203;19;20338;-72
2022/08/27 00:13:51;;;;;;;4.93;1.40;;;18.30;99.90;;;;;;3059308;19;20010;-73
2022/08/27 00:14:55;;;;;;;3.83;1.60;;;18.50;99.90;;;;;;3059265;19;19999;-73
2022/08/27 00:15:56;;;;;;;3.97;1.23;;;18.50;99.90;;;;;;3059187;19;20002;-73
2022/08/27 00:17:00;;;;;;;2.67;1.17;;;18.30;99.90;;;;;;3058524;19;20027;-73
2022/08/27 00:18:02;;;;;;;5.68;1.65;;;18.20;99.90;;;;;;3058763;19;20014;-73
2022/08/27 00:19:06;;;;;;;6.10;1.48;;;18.50;99.90;;;;;;3059069;19;20006;-73
2022/08/27 00:20:08;;;;;;;3.25;1.23;;;18.20;99.90;;;;;;3058931;19;20014;-72
2022/08/27 00:21:13;;;;;;;3.28;1.40;;;18.30;99.90;;;;;;3059245;19;20007;-73
2022/08/27 00:22:14;;;;;;;2.72;1.15;;;18.20;99.90;;;;;;3059117;19;20014;-72
2022/08/27 00:23:21;;;;;;;5.53;1.33;;;18.40;99.90;;;;;;3059223;19;20007;-73
2022/08/27 00:24:22;;;;;;;3.22;1.38;;;18.40;99.90;;;;;;3059393;19;20003;-72
2022/08/27 00:25:26;;;;;;;4.25;1.30;;;18.30;99.90;;;;;;3059105;19;20006;-73
2022/08/27 00:26:28;;;;;;;6.65;1.40;;;18.50;99.90;;;;;;3059077;19;20053;-73
2022/08/27 00:27:32;;;;;;;;;;;18.20;99.90;;;;;;3058998;19;20353;-72
2022/08/27 00:28:34;;;;;;;5.65;1.42;;;18.30;99.90;;;;;;3058986;19;19930;-73
2022/08/27 00:29:38;;;;;;;6.15;1.20;;;18.10;99.90;;;;;;3058814;19;20018;-74
2022/08/27 00:30:39;;;;;;;3.25;1.27;;;18.20;99.90;;;;;;3059011;19;20370;-74
2022/08/27 00:31:43;;;;;;;3.13;1.10;;;18.40;99.90;;;;;;3059027;19;20020;-73
2022/08/27 00:32:46;;;;;;;6.18;1.80;;;18.20;99.90;;;;;;3059235;19;20061;-73
2022/08/27 00:33:51;;;;;;;2.88;1.40;;;18.30;99.90;;;;;;3059016;19;20042;-73
2022/08/27 00:34:52;;;;;;;6.97;1.60;;;18.20;99.90;;;;;;3059167;19;20126;-73
2022/08/27 00:35:56;;;;;;;6.88;1.52;;;18.30;99.90;;;;;;3058896;19;20035;-73
2022/08/27 00:36:57;;;;;;;3.67;1.27;;;18.20;99.90;;;;;;3059084;19;20521;-73
2022/08/27 00:38:02;;;;;;;5.35;1.20;;;18.20;99.90;;;;;;3058316;19;20015;-73
2022/08/27 00:39:06;;;;;;;6.15;1.80;;;18.20;99.90;;;;;;3058957;19;20374;-73
2022/08/27 00:40:14;;;;;;;6.20;1.48;;;18.10;99.90;;;;;;3058650;19;20484;-73
2022/08/27 00:41:17;;;;;;;7.47;1.30;;;18.30;99.90;;;;;;3058948;19;20010;-73
2022/08/27 00:42:21;;;;;;;4.85;1.48;;;18.30;99.90;;;;;;3058716;19;20006;-73
2022/08/27 00:43:24;;;;;;;4.93;1.33;;;18.10;99.90;;;;;;3058848;19;20491;-73
2022/08/27 00:44:30;;;;;;;6.72;1.30;;;18.20;99.90;;;;;;3058964;19;20022;-72
2022/08/27 00:45:37;;;;;;;6.90;1.58;;;18.30;99.90;;;;;;3058822;19;20014;-73
2022/08/27 00:46:46;;;;;;;4.97;1.65;;;18.30;99.90;;;;;;3060472;19;20010;-73
2022/08/27 00:47:53;;;;;;;3.67;1.33;;;18.00;99.90;;;;;;3058693;19;20025;-73
2022/08/27 00:49:02;;;;;;;4.75;1.33;;;18.20;99.90;;;;;;3058710;19;20011;-73
2022/08/27 00:50:06;;;;;;;5.07;1.20;;;18.20;99.90;;;;;;3058460;19;20002;-73
2022/08/27 00:51:10;;;;;;;4.88;1.58;;;18.00;99.90;;;;;;3058577;19;20010;-73
2022/08/27 00:52:17;;;;;;;4.53;1.40;;;17.90;99.90;;;;;;3059052;19;20021;-73
2022/08/27 00:53:25;;;;;;;4.15;1.33;;;17.90;99.90;;;;;;3058810;19;20032;-72
2022/08/27 00:54:29;;;;;;;4.60;1.27;;;18.10;99.90;;;;;;3058529;19;20488;-73
2022/08/27 00:55:39;;;;;;;4.35;1.40;;;18.00;99.90;;;;;;3058755;19;19999;-73
2022/08/27 00:56:43;;;;;;;4.43;1.55;;;18.00;99.90;;;;;;3058597;19;20011;-73
2022/08/27 00:57:51;;;;;;;5.25;1.40;;;18.10;99.90;;;;;;3058544;19;20342;-73
2022/08/27 00:58:54;;;;;;;4.38;1.30;;;18.00;99.90;;;;;;3058463;19;20037;-73
2022/08/27 00:59:58;;;;;;;5.30;1.80;;;18.00;99.90;;;;;;3058609;19;20488;-73
2022/08/27 01:01:00;;;;;;;3.83;1.27;;;18.00;99.90;;;;;;3058553;19;20007;-73
2022/08/27 01:03:20;;;;;;;4.22;1.40;;;18.10;99.90;;;;;;3058468;19;20552;-72
2022/08/27 01:04:22;;;;;;;5.15;1.48;;;18.10;99.90;;;;;;3058612;19;20003;-72
2022/08/27 01:05:27;;;;;;;9.38;1.65;;;17.90;99.90;;;;;;3058377;19;20532;-72
2022/08/27 01:06:32;;;;;;;3.72;1.42;;;17.80;99.90;;;;;;3058636;19;20003;-73
2022/08/27 01:07:40;;;;;;;3.92;1.33;;;17.80;99.90;;;;;;3058244;19;20036;-72
2022/08/27 01:08:47;;;;;;;4.10;1.50;;;17.90;99.90;;;;;;3058602;19;20476;-73
2022/08/27 01:09:54;;;;;;;6.20;1.58;;;17.80;99.90;;;;;;3058283;19;20015;-73
2022/08/27 01:10:59;;;;;;;6.53;1.40;;;17.80;99.90;;;;;;3058523;19;20010;-73
2022/08/27 01:12:03;;;;;;;4.05;1.45;;;17.80;99.90;;;;;;3058575;19;20028;-73
2022/08/27 01:13:07;;;;;;;5.90;1.60;;;17.90;99.90;;;;;;3058567;19;20472;-73
2022/08/27 01:14:11;;;;;;;4.50;1.42;;;17.80;99.90;;;;;;3058425;19;20002;-73
2022/08/27 01:15:15;;;;;;;7.10;1.42;;;17.80;99.90;;;;;;3058522;19;19998;-73
2022/08/27 01:16:22;;;;;;;7.22;1.55;;;17.70;99.90;;;;;;3058446;19;20010;-75
2022/08/27 01:17:24;;;;;;;6.35;1.60;;;17.80;99.90;;;;;;3057437;19;20382;-73
2022/08/27 01:18:29;;;;;;;7.18;1.80;;;17.70;99.90;;;;;;3058256;19;20010;-72
2022/08/27 01:19:34;;;;;;;3.05;1.73;;;17.70;99.90;;;;;;3057820;19;20010;-73
2022/08/27 01:20:47;;;;;;;7.25;1.70;;;17.70;99.90;;;;;;3057856;19;20014;-72
2022/08/27 01:21:56;;;;;;;4.30;1.50;;;17.60;99.90;;;;;;3056160;19;20309;-73
2022/08/27 01:23:06;;;;;;;3.95;1.40;;;17.60;99.90;;;;;;3058306;19;20006;-72
2022/08/27 01:24:18;;;;;;;4.45;1.52;;;17.40;99.90;;;;;;3058085;19;20010;-73
2022/08/27 01:25:23;;;;;;;4.72;1.40;;;17.60;99.90;;;;;;3058267;19;20036;-72
2022/08/27 01:26:25;;;;;;;4.68;1.50;;;17.60;99.90;;;;;;3058113;19;20491;-73
2022/08/27 01:27:33;;;;;;;6.72;1.80;;;17.50;99.90;;;;;;3057971;19;20028;-73
2022/08/27 01:28:35;;;;;;;3.70;1.40;;;17.70;99.90;;;;;;3058256;19;20015;-73
2022/08/27 01:29:39;;;;;;;6.30;1.50;;;17.60;99.90;;;;;;3058272;19;20081;-73
2022/08/27 01:30:41;;;;;;;3.88;1.20;;;17.60;99.90;;;;;;3058065;19;20358;-73
2022/08/27 01:31:45;;;;;;;;;;;17.60;99.90;;;;;;3058965;19;20004;-73
2022/08/27 01:32:48;;;;;;;8.10;1.63;;;17.50;99.90;;;;;;3058166;19;19918;-73
2022/08/27 01:34:00;;;;;;;4.18;1.45;;;17.30;99.90;;;;;;3058313;19;20476;-74
2022/08/27 01:35:04;;;;;;;4.70;1.40;;;17.30;99.90;;;;;;3058383;19;20023;-73
2022/08/27 01:36:09;;;;;;;4.45;1.60;;;17.40;99.90;;;;;;3058106;19;19998;-73
2022/08/27 01:37:12;;;;;;;6.30;1.50;;;17.40;99.90;;;;;;3057247;19;20010;-73
2022/08/27 01:38:17;;;;;;;7.43;1.67;;;17.40;99.90;;;;;;3056864;19;20071;-73
2022/08/27 01:39:21;;;;;;;4.18;1.30;;;17.40;99.90;;;;;;3058305;19;20015;-73
2022/08/27 01:40:24;;;;;;;6.72;1.60;;;17.40;99.90;;;;;;3058110;19;20035;-73
2022/08/27 01:41:26;;;;;;;4.18;1.60;;;17.50;99.90;;;;;;3058370;19;20014;-73
2022/08/27 01:42:33;;;;;;;4.50;1.50;;;17.40;99.90;;;;;;3058045;19;20022;-73
2022/08/27 01:43:34;;;;;;;6.63;2.15;;;17.30;99.90;;;;;;3058120;19;20010;-74
2022/08/27 01:44:47;;;;;;;4.78;1.83;;;17.40;99.90;;;;;;3057179;19;20018;-73
2022/08/27 01:45:50;;;;;;;4.63;1.40;;;17.50;99.90;;;;;;3057990;19;20114;-73
2022/08/27 01:46:54;;;;;;;5.93;1.50;;;17.40;99.90;;;;;;3057931;19;20015;-72
2022/08/27 01:47:59;;;;;;;4.95;1.42;;;17.50;99.90;;;;;;3058008;19;20014;-73
2022/08/27 01:49:01;;;;;;;3.95;1.33;;;17.40;99.90;;;;;;3057756;19;20010;-72
2022/08/27 01:50:08;;;;;;;5.95;1.50;;;17.30;99.90;;;;;;3057884;19;20010;-73
2022/08/27 01:51:09;;;;;;;6.63;1.58;;;17.50;99.90;;;;;;3057713;19;20011;-73
2022/08/27 01:52:14;;;;;;;5.72;1.60;;;17.30;99.90;;;;;;3057996;19;20461;-73
2022/08/27 01:53:18;;;;;;;6.90;1.60;;;17.50;99.90;;;;;;3057864;19;20508;-72
2022/08/27 01:54:25;;;;;;;5.53;1.40;;;17.40;99.90;;;;;;3057972;19;20022;-73
2022/08/27 01:55:26;;;;;;;4.97;1.88;;;17.50;99.90;;;;;;3057081;19;20018;-73
2022/08/27 01:56:30;;;;;;;4.05;1.60;;;17.60;99.90;;;;;;3057387;19;20514;-73
2022/08/27 01:57:32;;;;;;;6.45;1.60;;;17.40;99.90;;;;;;3057807;19;20003;-73
2022/08/27 01:58:36;;;;;;;9.15;1.58;;;17.40;99.90;;;;;;3057712;19;20066;-73
2022/08/27 01:59:38;;;;;;;6.00;1.77;;;17.50;99.90;;;;;;3057737;19;20011;-73
2022/08/27 02:00:45;;;;;;;3.83;1.80;;;17.60;99.90;;;;;;3058306;19;20002;-74
2022/08/27 02:01:46;;;;;;;3.78;1.70;;;17.50;99.90;;;;;;3057784;19;20368;-73
2022/08/27 02:02:50;;;;;;;6.65;1.63;;;17.60;99.90;;;;;;3058028;19;20006;-73
2022/08/27 02:03:51;;;;;;;5.93;1.80;;;17.30;99.90;;;;;;3057917;19;20002;-73
2022/08/27 02:04:55;;;;;;;3.67;1.40;;;17.50;99.90;;;;;;3057977;19;20011;-73
2022/08/27 02:05:56;;;;;;;4.32;1.75;;;17.40;99.90;;;;;;3057578;19;20488;-73
2022/08/27 02:07:00;;;;;;;3.60;1.50;;;17.50;99.90;;;;;;3058067;19;20014;-73
2022/08/27 02:08:02;;;;;;;4.68;1.58;;;17.40;99.90;;;;;;3057552;19;20035;-72
2022/08/27 02:09:06;;;;;;;;;;;17.40;99.90;;;;;;3058535;19;20375;-73
2022/08/27 02:10:12;;;;;;;6.07;1.63;;;17.50;99.90;;;;;;3057593;19;20337;-72
2022/08/27 02:11:16;;;;;;;4.30;1.48;;;17.40;99.90;;;;;;3057868;19;20015;-74
2022/08/27 02:12:17;;;;;;;4.40;1.60;;;17.40;99.90;;;;;;3057542;19;20013;-71
2022/08/27 02:13:21;;;;;;;5.00;1.52;;;17.30;99.90;;;;;;3057952;19;20019;-72
2022/08/27 02:14:23;;;;;;;4.05;1.48;;;17.30;99.90;;;;;;3057566;19;20496;-73
2022/08/27 02:15:28;;;;;;;4.38;1.40;;;17.50;99.90;;;;;;3057725;19;20015;-73
2022/08/27 02:16:31;;;;;;;6.93;1.60;;;17.40;99.90;;;;;;3057605;19;20010;-73
2022/08/27 02:17:35;;;;;;;6.00;1.48;;;17.30;99.90;;;;;;3056993;19;20039;-73
2022/08/27 02:18:37;;;;;;;6.93;1.77;;;17.30;99.90;;;;;;3057136;19;20496;-73
2022/08/27 02:19:41;;;;;;;3.10;1.52;;;17.30;99.90;;;;;;3057436;19;20019;-72
2022/08/27 02:20:43;;;;;;;6.63;1.65;;;17.50;99.90;;;;;;3057655;19;20006;-72
2022/08/27 02:21:48;;;;;;;5.88;1.48;;;17.40;99.90;;;;;;3057576;19;20011;-73
2022/08/27 02:22:49;;;;;;;6.88;1.73;;;17.60;99.90;;;;;;3057523;19;20018;-72
2022/08/27 02:23:54;;;;;;;6.97;1.52;;;17.60;99.90;;;;;;3057587;19;20007;-72
2022/08/27 02:24:55;;;;;;;5.00;1.55;;;17.50;99.90;;;;;;3057670;19;20002;-73
2022/08/27 02:26:01;;;;;;;7.05;1.50;;;17.40;99.90;;;;;;3057745;19;20078;-73
2022/08/27 02:27:03;;;;;;;5.13;1.65;;;17.50;99.90;;;;;;3057342;19;20011;-73
2022/08/27 02:28:08;;;;;;;4.05;1.83;;;17.40;99.90;;;;;;3057713;19;20007;-73
2022/08/27 02:29:09;;;;;;;4.70;1.48;;;17.50;99.90;;;;;;3057814;19;20011;-74
2022/08/27 02:30:17;;;;;;;4.80;1.65;;;17.50;99.90;;;;;;3057794;19;20099;-74
2022/08/27 02:31:18;;;;;;;5.78;1.40;;;17.40;99.90;;;;;;3057797;19;20091;-73
2022/08/27 02:32:22;;;;;;;4.22;1.50;;;17.60;99.90;;;;;;3057615;19;20112;-73
2022/08/27 02:33:25;;;;;;;6.15;1.67;;;17.60;99.90;;;;;;3059490;19;20465;-73
2022/08/27 02:34:29;;;;;;;7.10;1.50;;;17.50;99.90;;;;;;3060732;19;20015;-73
2022/08/27 02:35:32;;;;;;;6.32;1.80;;;17.50;99.90;;;;;;3061088;19;20293;-73
2022/08/27 02:36:37;;;;;;;4.72;1.45;;;17.70;99.90;;;;;;3061028;19;20127;-73
2022/08/27 02:37:38;;;;;;;5.35;1.50;;;17.50;99.90;;;;;;3060906;19;20021;-73
2022/08/27 02:38:43;;;;;;;4.88;1.52;;;17.50;99.90;;;;;;3060382;19;20003;-74
2022/08/27 02:39:45;;;;;;;3.83;1.60;;;17.60;99.90;;;;;;3059884;19;20023;-73
2022/08/27 02:40:49;;;;;;;4.65;2.03;;;17.60;99.90;;;;;;3060133;19;20011;-73
2022/08/27 02:41:53;;;;;;;5.35;1.73;;;17.60;99.90;;;;;;3061037;19;20002;-73
2022/08/27 02:42:56;;;;;;;5.80;1.60;;;17.60;99.90;;;;;;3060789;19;20010;-74
2022/08/27 02:43:58;;;;;;;7.15;1.60;;;17.50;99.90;;;;;;3060799;19;20010;-73
2022/08/27 02:45:02;;;;;;;3.60;1.50;;;17.70;99.90;;;;;;3059738;19;20056;-73
2022/08/27 02:46:03;;;;;;;8.13;1.70;;;17.60;99.90;;;;;;3060983;19;20010;-74
2022/08/27 02:47:08;;;;;;;5.93;1.70;;;17.70;99.90;;;;;;3060858;19;20423;-73
2022/08/27 02:48:09;;;;;;;5.88;1.83;;;17.40;99.90;;;;;;3060906;19;20003;-73
2022/08/27 02:49:14;;;;;;;7.00;1.60;;;17.50;99.90;;;;;;3060500;19;20019;-73
2022/08/27 02:50:16;;;;;;;3.83;1.50;;;17.70;99.90;;;;;;3060212;19;20822;-73
2022/08/27 02:51:19;;;;;;;5.90;1.50;;;17.50;99.90;;;;;;3060328;19;20023;-73
2022/08/27 02:52:21;;;;;;;4.07;1.40;;;17.60;99.90;;;;;;3060606;19;20010;-73
2022/08/27 02:53:25;;;;;;;5.85;1.48;;;17.40;99.90;;;;;;3060223;19;20484;-73
2022/08/27 02:54:27;;;;;;;5.68;1.70;;;17.60;99.90;;;;;;3060672;19;20002;-74
2022/08/27 02:55:31;;;;;;;5.60;1.30;;;17.50;99.90;;;;;;3060467;19;20061;-73
2022/08/27 02:56:33;;;;;;;3.10;1.55;;;17.60;99.90;;;;;;3060248;19;20505;-73
2022/08/27 02:57:39;;;;;;;5.28;2.05;;;17.40;99.90;;;;;;3060236;19;20014;-73
2022/08/27 02:58:41;;;;;;;4.40;1.77;;;17.60;99.90;;;;;;3060225;19;20380;-73
2022/08/27 02:59:45;;;;;;;7.20;1.70;;;17.50;99.90;;;;;;3060326;19;20014;-73
2022/08/27 03:00:46;;;;;;;6.70;1.95;;;17.50;99.90;;;;;;3060497;19;20070;-73
2022/08/27 03:01:50;;;;;;;5.45;1.60;;;17.50;99.90;;;;;;3060222;19;20014;-73
2022/08/27 03:02:52;;;;;;;4.20;1.48;;;17.50;99.90;;;;;;3060481;19;20456;-73
2022/08/27 03:03:56;;;;;;;5.38;1.75;;;17.50;99.90;;;;;;3060309;19;20037;-73
2022/08/27 03:04:57;;;;;;;7.38;1.40;;;17.50;99.90;;;;;;3060264;19;20029;-73
2022/08/27 03:06:01;;;;;;;5.10;1.60;;;17.60;99.90;;;;;;3060029;19;20352;-73
2022/08/27 03:07:03;;;;;;;5.13;1.58;;;17.80;99.90;;;;;;3060089;19;20464;-73
2022/08/27 03:08:08;;;;;;;5.80;1.77;;;17.50;99.90;;;;;;3060273;19;20031;-73
2022/08/27 03:09:09;;;;;;;7.07;1.50;;;17.70;99.90;;;;;;3060233;19;20489;-74
2022/08/27 03:10:16;;;;;;;7.15;1.67;;;17.60;99.90;;;;;;3059967;19;20423;-73
2022/08/27 03:11:17;;;;;;;3.35;1.48;;;17.70;99.90;;;;;;3059983;19;20338;-73
2022/08/27 03:12:23;;;;;;;5.70;1.60;;;17.50;99.90;;;;;;3060193;19;20087;-73
2022/08/27 03:13:27;;;;;;;7.85;2.03;;;17.70;99.90;;;;;;3059222;19;20031;-73
2022/08/27 03:14:31;;;;;;;3.70;1.65;;;17.60;99.90;;;;;;3059080;19;20010;-74
2022/08/27 03:15:32;;;;;;;4.90;1.70;;;17.60;99.90;;;;;;3060097;19;20085;-73
2022/08/27 03:16:37;;;;;;;4.93;1.58;;;17.50;99.90;;;;;;3060033;19;20523;-73
2022/08/27 03:18:54;;;;;;;4.20;1.58;;;17.60;99.90;;;;;;3059344;19;20361;-74
2022/08/27 03:19:56;;;;;;;4.15;1.77;;;17.60;99.90;;;;;;3060011;19;19999;-73
2022/08/27 03:21:01;;;;;;;5.72;1.40;;;17.50;99.90;;;;;;3059941;19;20011;-73
2022/08/27 03:22:02;;;;;;;8.45;1.75;;;17.60;99.90;;;;;;3060048;19;20520;-73
2022/08/27 03:23:06;;;;;;;4.68;1.75;;;17.60;99.90;;;;;;3059903;19;20368;-73
2022/08/27 03:24:08;;;;;;;6.38;1.52;;;17.50;99.90;;;;;;3060262;19;20002;-74
2022/08/27 03:25:13;;;;;;;5.43;1.90;;;17.60;99.90;;;;;;3059932;19;20511;-73
2022/08/27 03:26:14;;;;;;;5.07;1.70;;;17.60;99.90;;;;;;3059165;19;20011;-73
2022/08/27 03:27:18;;;;;;;5.32;1.52;;;17.80;99.90;;;;;;3058532;19;20025;-73
2022/08/27 03:28:21;;;;;;;5.47;1.60;;;17.80;99.90;;;;;;3060070;19;20488;-73
2022/08/27 03:29:27;;;;;;;7.90;2.35;;;17.50;99.90;;;;;;3059972;19;20090;-74
2022/08/27 03:30:29;;;;;;;5.40;1.60;;;17.50;99.90;;;;;;3060084;19;20031;-72
2022/08/27 03:31:33;;;;;;;;;;;17.50;99.90;;;;;;3060529;19;20014;-73
2022/08/27 03:32:35;;;;;;;9.25;1.80;;;17.70;99.90;;;;;;3059840;19;19929;-73
2022/08/27 03:33:42;;;;;;;4.07;1.50;;;17.60;99.90;;;;;;3059746;19;20483;-73
2022/08/27 03:34:43;;;;;;;6.25;1.90;;;17.50;99.90;;;;;;3059926;19;20003;-74
2022/08/27 03:35:48;;;;;;;3.58;1.83;;;17.60;99.90;;;;;;3059749;19;20023;-72
2022/08/27 03:36:52;;;;;;;4.18;1.60;;;17.70;99.90;;;;;;3059710;19;20504;-73
2022/08/27 03:37:53;;;;;;;4.15;1.45;;;17.50;99.90;;;;;;3060148;19;20099;-73
2022/08/27 03:38:58;;;;;;;6.35;1.40;;;17.50;99.90;;;;;;3059617;19;20021;-72
2022/08/27 03:39:59;;;;;;;4.68;1.80;;;17.60;99.90;;;;;;3059849;19;20005;-73
2022/08/27 03:41:04;;;;;;;8.65;2.22;;;17.60;99.90;;;;;;3059490;19;20017;-72
2022/08/27 03:42:05;;;;;;;9.43;2.03;;;18.90;99.90;;;;;;3059807;19;19999;-72
2022/08/27 03:43:09;;;;;;;8.98;1.80;;;17.80;99.90;;;;;;3059707;19;20027;-72
2022/08/27 03:44:11;;;;;;;4.25;1.65;;;17.60;99.90;;;;;;3059892;19;20322;-72
2022/08/27 03:45:17;;;;;;;5.95;1.60;;;17.50;99.90;;;;;;3057737;19;20019;-73
2022/08/27 03:46:19;;;;;;;8.57;2.00;;;17.50;99.90;;;;;;3061336;19;20018;-72
2022/08/27 03:47:24;;;;;;;5.88;1.63;;;17.80;99.90;;;;;;3059577;19;20480;-72
2022/08/27 03:48:25;;;;;;;5.93;1.85;;;17.50;99.90;;;;;;3059833;19;20069;-73
2022/08/27 03:49:30;;;;;;;6.93;1.77;;;17.60;99.90;;;;;;3058998;19;20015;-73
2022/08/27 03:50:32;;;;;;;7.22;1.90;;;17.40;99.90;;;;;;3059699;19;20377;-73
2022/08/27 03:51:36;;;;;;;5.32;1.67;;;17.70;99.90;;;;;;3059412;19;20015;-73
2022/08/27 03:52:37;;;;;;;5.38;1.60;;;17.60;99.90;;;;;;3059618;19;20009;-72
2022/08/27 03:53:43;;;;;;;4.28;1.50;;;17.60;99.90;;;;;;3059510;19;20447;-73
2022/08/27 03:54:45;;;;;;;6.43;1.60;;;17.60;99.90;;;;;;3059545;19;20017;-73
2022/08/27 03:55:49;;;;;;;5.25;1.70;;;17.70;99.90;;;;;;3059504;19;20018;-73
2022/08/27 03:56:50;;;;;;;5.65;1.67;;;17.50;99.90;;;;;;3059591;19;19998;-74
2022/08/27 03:57:54;;;;;;;5.50;1.77;;;17.50;99.90;;;;;;3059538;19;20003;-73
2022/08/27 03:58:55;;;;;;;4.53;1.38;;;17.50;99.90;;;;;;3059456;19;20116;-73
2022/08/27 03:59:59;;;;;;;3.90;1.65;;;17.70;99.90;;;;;;3059654;19;20364;-74
2022/08/27 04:01:04;;;;;;;4.90;2.03;;;17.50;99.90;;;;;;3060125;19;20090;-73
2022/08/27 04:02:08;;;;;;;3.83;1.40;;;17.80;99.90;;;;;;3059327;19;20356;-72
2022/08/27 04:03:11;;;;;;;6.13;1.80;;;17.70;99.90;;;;;;3059472;19;20009;-74
2022/08/27 04:04:15;;;;;;;4.90;1.60;;;17.50;99.90;;;;;;3059424;19;20035;-73
2022/08/27 04:05:17;;;;;;;7.13;2.10;;;17.50;99.90;;;;;;3059433;19;20010;-73
2022/08/27 04:06:21;;;;;;;;;;;17.70;99.90;;;;;;3059914;19;20007;-73
2022/08/27 04:07:22;;;;;;;5.97;1.60;;;17.50;99.90;;;;;;3059551;19;19919;-73
2022/08/27 04:08:27;;;;;;;4.78;1.58;;;17.30;99.90;;;;;;3059201;19;20014;-74
2022/08/27 04:09:29;;;;;;;4.25;1.90;;;17.60;99.90;;;;;;3059546;19;20010;-73
2022/08/27 04:10:32;;;;;;;6.80;1.80;;;17.60;99.90;;;;;;3059447;19;20023;-73
2022/08/27 04:11:34;;;;;;;5.22;1.50;;;17.50;99.90;;;;;;3059367;19;20017;-74
2022/08/27 04:12:39;;;;;;;6.35;1.45;;;17.60;99.90;;;;;;3059398;19;20015;-73
2022/08/27 04:13:40;;;;;;;6.22;1.95;;;17.70;99.90;;;;;;3059435;19;20006;-74
2022/08/27 04:14:44;;;;;;;5.95;1.48;;;17.70;99.90;;;;;;3059347;19;20035;-74
2022/08/27 04:15:48;;;;;;;8.43;2.00;;;17.60;99.90;;;;;;3059459;19;20029;-73
2022/08/27 04:16:55;;;;;;;6.13;1.90;;;17.50;99.90;;;;;;3058947;19;20036;-74
2022/08/27 04:17:56;;;;;;;4.80;1.77;;;17.60;99.90;;;;;;3059247;19;20051;-73
2022/08/27 04:19:00;;;;;;;3.70;1.60;;;17.60;99.90;;;;;;3059082;19;20006;-73
2022/08/27 04:20:02;;;;;;;5.90;2.00;;;17.50;99.90;;;;;;3057971;19;20010;-73
2022/08/27 04:21:10;;;;;;;7.50;1.67;;;17.50;99.90;;;;;;3059059;19;20015;-73
2022/08/27 04:22:12;;;;;;;7.75;1.90;;;17.60;99.90;;;;;;3059173;19;20006;-72
2022/08/27 04:23:16;;;;;;;5.72;1.67;;;17.60;99.90;;;;;;3059246;19;20014;-73
2022/08/27 04:24:17;;;;;;;4.60;1.60;;;17.40;99.90;;;;;;3058992;19;20019;-72
2022/08/27 04:25:21;;;;;;;3.95;1.67;;;17.50;99.90;;;;;;3059148;19;20047;-73
2022/08/27 04:26:23;;;;;;;6.13;1.80;;;17.40;99.90;;;;;;3059440;19;20010;-73
2022/08/27 04:27:27;;;;;;;3.88;1.50;;;17.40;99.90;;;;;;3058440;19;20484;-73
2022/08/27 04:28:29;;;;;;;4.22;1.58;;;17.30;99.90;;;;;;3059127;19;20014;-73
2022/08/27 04:29:33;;;;;;;5.75;1.60;;;17.50;99.90;;;;;;3059118;19;20373;-73
2022/08/27 04:30:38;;;;;;;5.35;1.75;;;17.30;99.90;;;;;;3059192;19;20015;-73
2022/08/27 04:31:42;;;;;;;5.93;1.65;;;17.50;99.90;;;;;;3058756;19;20014;-73
2022/08/27 04:32:46;;;;;;;6.90;2.10;;;17.30;99.90;;;;;;3059120;19;20018;-74
2022/08/27 04:33:52;;;;;;;8.68;1.50;;;17.40;99.90;;;;;;3058883;19;20019;-73
2022/08/27 04:34:54;;;;;;;7.05;1.70;;;17.40;99.90;;;;;;3059013;19;20019;-74
2022/08/27 04:36:01;;;;;;;5.32;1.52;;;17.30;99.90;;;;;;3059020;19;20018;-73
2022/08/27 04:37:03;;;;;;;4.07;1.83;;;17.30;99.90;;;;;;3059049;19;20007;-73
2022/08/27 04:38:07;;;;;;;6.72;1.65;;;17.30;99.90;;;;;;3058910;19;20021;-73
2022/08/27 04:39:08;;;;;;;4.72;1.70;;;17.20;99.90;;;;;;3058940;19;20021;-73
2022/08/27 04:40:12;;;;;;;6.57;1.75;;;17.30;99.90;;;;;;3057935;19;20377;-73
2022/08/27 04:41:20;;;;;;;8.10;1.83;;;17.30;99.90;;;;;;3058753;19;20017;-73
2022/08/27 04:42:24;;;;;;;4.88;1.73;;;17.20;99.90;;;;;;3058781;19;20029;-73
2022/08/27 04:43:27;;;;;;;9.35;1.95;;;17.10;99.90;;;;;;3058921;19;20222;-73
2022/08/27 04:44:34;;;;;;;7.28;2.03;;;17.20;99.90;;;;;;3058678;19;20329;-73
2022/08/27 04:45:43;;;;;;;5.60;1.85;;;17.40;99.90;;;;;;3059373;19;20010;-73
2022/08/27 04:46:47;;;;;;;5.20;1.90;;;17.20;99.90;;;;;;3059006;19;19994;-73
2022/08/27 04:47:51;;;;;;;6.03;1.70;;;17.20;99.90;;;;;;3058572;19;20192;-72
2022/08/27 04:48:55;;;;;;;10.85;2.20;;;17.20;99.90;;;;;;3059030;19;20010;-74
2022/08/27 04:49:56;;;;;;;7.32;1.80;;;17.10;99.90;;;;;;3058409;19;20002;-73
2022/08/27 04:51:00;;;;;;;5.47;1.85;;;17.10;99.90;;;;;;3058711;19;20469;-73
2022/08/27 04:52:05;;;;;;;6.28;1.90;;;17.10;99.90;;;;;;3058562;19;20035;-73
2022/08/27 04:53:07;;;;;;;7.40;1.90;;;17.20;99.90;;;;;;3058686;19;20476;-73
2022/08/27 04:54:11;;;;;;;;;;;17.00;99.90;;;;;;3059060;19;20010;-73
2022/08/27 04:55:12;;;;;;;5.20;2.00;;;17.10;99.90;;;;;;3058906;19;20261;-73
2022/08/27 04:56:18;;;;;;;8.82;1.92;;;17.10;99.90;;;;;;3058289;19;20014;-74
2022/08/27 04:57:20;;;;;;;4.68;1.70;;;17.20;99.90;;;;;;3058677;19;20043;-73
2022/08/27 04:58:26;;;;;;;5.55;1.50;;;17.10;99.90;;;;;;3058622;19;20011;-73
2022/08/27 04:59:30;;;;;;;5.35;1.95;;;17.00;99.90;;;;;;3058553;19;20014;-73
2022/08/27 05:00:32;;;;;;;4.95;2.00;;;17.00;99.90;;;;;;3058386;19;20014;-72
2022/08/27 05:01:36;;;;;;;;;;;17.10;99.90;;;;;;3059221;19;20014;-73
2022/08/27 05:02:37;;;;;;;6.50;2.10;;;17.10;99.90;;;;;;3058542;19;19917;-73
2022/08/27 05:03:44;;;;;;;7.13;1.88;;;16.90;99.90;;;;;;3058842;19;20006;-73
2022/08/27 05:04:48;;;;;;;4.63;1.65;;;16.90;99.90;;;;;;3058451;19;20026;-73
2022/08/27 05:05:49;;;;;;;6.45;1.92;;;16.90;99.90;;;;;;3058571;19;20006;-73
2022/08/27 05:06:53;;;;;;;6.20;2.10;;;17.00;99.90;;;;;;3058614;19;20057;-73
2022/08/27 05:07:55;;;;;;;6.10;2.08;;;16.90;99.90;;;;;;3058642;19;19998;-72
2022/08/27 05:09:00;;;;;;;6.15;2.20;;;16.90;99.90;;;;;;3058444;19;20038;-73
2022/08/27 05:10:01;;;;;;;5.47;1.80;;;16.90;99.90;;;;;;3058225;19;20010;-72
2022/08/27 05:11:09;;;;;;;4.22;1.77;;;17.00;99.90;;;;;;3058277;19;20011;-72
2022/08/27 05:12:13;;;;;;;4.93;1.88;;;17.10;99.90;;;;;;3058575;19;20476;-73
2022/08/27 05:13:14;;;;;;;7.10;2.05;;;17.00;99.90;;;;;;3058252;19;20386;-73
2022/08/27 05:14:20;;;;;;;5.82;2.10;;;17.00;99.90;;;;;;3058393;19;20342;-73
2022/08/27 05:15:21;;;;;;;6.10;2.13;;;17.00;99.90;;;;;;3058487;19;20345;-72
2022/08/27 05:16:25;;;;;;;3.88;1.83;;;16.80;99.90;;;;;;3058485;19;20078;-74
2022/08/27 05:17:30;;;;;;;10.52;2.38;;;17.10;99.90;;;;;;3057257;19;20018;-72
2022/08/27 05:18:35;;;;;;;4.53;1.85;;;17.10;99.90;;;;;;3058510;19;20015;-72
2022/08/27 05:19:42;;;;;;;6.32;1.80;;;16.90;99.90;;;;;;3057580;19;20011;-73
2022/08/27 05:20:45;;;;;;;7.53;2.20;;;17.00;99.90;;;;;;3058193;19;20510;-72
2022/08/27 05:21:51;;;;;;;10.23;2.20;;;17.10;99.90;;;;;;3058119;19;20044;-73
2022/08/27 05:22:53;;;;;;;9.25;1.77;;;17.10;99.90;;;;;;3058190;19;20468;-72
2022/08/27 05:23:58;;;;;;;;;;;16.90;99.90;;;;;;3058907;19;20011;-72
2022/08/27 05:25:00;;;;;;;4.40;1.80;;;17.00;99.90;;;;;;3058380;19;19950;-73
2022/08/27 05:26:04;;;;;;;4.90;2.00;;;16.90;99.90;;;;;;3058115;19;20362;-72
2022/08/27 05:27:08;;;;;;;6.38;1.88;;;16.80;99.90;;;;;;3058193;19;20483;-73
2022/08/27 05:28:10;;;;;;;8.02;2.03;;;16.90;99.90;;;;;;3058123;19;20092;-73
2022/08/27 05:29:14;;;;;;;5.25;2.08;;;16.90;99.90;;;;;;3058435;19;20013;-73
2022/08/27 05:30:17;;;;;;;5.53;1.80;;;16.90;99.90;;;;;;3058139;19;20033;-72
2022/08/27 05:31:22;;;;;;;6.20;1.85;;;17.10;99.90;;;;;;3058454;19;20010;-73
2022/08/27 05:32:24;;;;;;;8.77;2.00;;;16.90;99.90;;;;;;3058360;19;20010;-73
2022/08/27 05:33:29;;;;;;;7.18;2.60;;;17.00;99.90;;;;;;3058253;19;20039;-73
2022/08/27 05:34:34;;;;;;;12.20;2.53;;;17.10;99.90;;;;;;3058320;19;20003;-72